sensor_id;sensor_type;location;lat;lon;timestamp;pressure;altitude;pressure_sealevel;temperature;humidity
62680;BME280;68213;40.528;44.712;2023-04-06T00:00:23;79849.09;;;4.02;74.02
62680;BME280;68213;40.528;44.712;2023-04-06T00:01:24;79833.72;;;3.85;73.54
62680;BME280;68213;40.528;44.712;2023-04-06T00:02:25;79834.34;;;3.95;73.51
62680;BME280;68213;40.528;44.712;2023-04-06T00:03:26;79839.94;;;4.01;73.75
62680;BME280;68213;40.528;44.712;2023-04-06T00:04:26;79840.63;;;4.02;73.63
62680;BME280;68213;40.528;44.712;2023-04-06T00:05:27;79837.19;;;3.99;73.69
62680;BME280;68213;40.528;44.712;2023-04-06T00:06:30;79842.28;;;3.97;73.46
62680;BME280;68213;40.528;44.712;2023-04-06T00:07:33;79841.28;;;4.02;73.51
62680;BME280;68213;40.528;44.712;2023-04-06T00:08:33;79841.72;;;3.99;73.48
62680;BME280;68213;40.528;44.712;2023-04-06T00:09:34;79839.13;;;3.99;73.69
62680;BME280;68213;40.528;44.712;2023-04-06T00:10:35;79845.81;;;4.02;73.73
62680;BME280;68213;40.528;44.712;2023-04-06T00:11:35;79840.91;;;3.96;74.54
62680;BME280;68213;40.528;44.712;2023-04-06T00:12:36;79835.44;;;3.92;75.01
62680;BME280;68213;40.528;44.712;2023-04-06T00:13:37;79837.00;;;3.85;75.39
62680;BME280;68213;40.528;44.712;2023-04-06T00:14:37;79836.72;;;3.91;75.21
62680;BME280;68213;40.528;44.712;2023-04-06T00:15:38;79832.75;;;3.90;76.12
62680;BME280;68213;40.528;44.712;2023-04-06T00:16:39;79836.72;;;3.91;75.94
62680;BME280;68213;40.528;44.712;2023-04-06T00:17:39;79831.91;;;3.87;75.72
62680;BME280;68213;40.528;44.712;2023-04-06T00:18:40;79829.56;;;3.91;76.16
62680;BME280;68213;40.528;44.712;2023-04-06T00:19:41;79827.91;;;3.96;76.01
62680;BME280;68213;40.528;44.712;2023-04-06T00:20:42;79814.53;;;3.90;75.99
62680;BME280;68213;40.528;44.712;2023-04-06T00:21:42;79818.38;;;3.89;76.38
62680;BME280;68213;40.528;44.712;2023-04-06T00:22:43;79835.22;;;3.88;76.38
62680;BME280;68213;40.528;44.712;2023-04-06T00:23:44;79822.34;;;3.90;75.97
62680;BME280;68213;40.528;44.712;2023-04-06T00:24:45;79830.25;;;3.92;76.12
62680;BME280;68213;40.528;44.712;2023-04-06T00:25:46;79832.75;;;3.90;75.99
62680;BME280;68213;40.528;44.712;2023-04-06T00:26:47;79822.59;;;3.94;76.27
62680;BME280;68213;40.528;44.712;2023-04-06T00:27:47;79823.16;;;3.92;76.03
62680;BME280;68213;40.528;44.712;2023-04-06T00:28:48;79825.47;;;3.88;76.14
62680;BME280;68213;40.528;44.712;2023-04-06T00:29:50;79808.28;;;3.83;76.32
62680;BME280;68213;40.528;44.712;2023-04-06T00:30:52;79818.31;;;3.99;75.83
62680;BME280;68213;40.528;44.712;2023-04-06T00:31:53;79815.16;;;4.00;75.94
62680;BME280;68213;40.528;44.712;2023-04-06T00:32:53;79804.69;;;3.88;75.82
62680;BME280;68213;40.528;44.712;2023-04-06T00:33:54;79822.94;;;4.00;76.21
62680;BME280;68213;40.528;44.712;2023-04-06T00:34:55;79818.97;;;3.99;76.03
62680;BME280;68213;40.528;44.712;2023-04-06T00:35:56;79819.69;;;4.00;75.97
62680;BME280;68213;40.528;44.712;2023-04-06T00:36:57;79813.53;;;3.95;76.59
62680;BME280;68213;40.528;44.712;2023-04-06T00:37:57;79815.34;;;3.92;76.31
62680;BME280;68213;40.528;44.712;2023-04-06T00:38:58;79807.25;;;3.98;76.55
62680;BME280;68213;40.528;44.712;2023-04-06T00:39:59;79811.50;;;3.93;76.52
62680;BME280;68213;40.528;44.712;2023-04-06T00:41:00;79805.59;;;3.93;76.48
62680;BME280;68213;40.528;44.712;2023-04-06T00:42:07;79811.06;;;3.97;76.56
62680;BME280;68213;40.528;44.712;2023-04-06T00:43:14;79811.25;;;3.89;76.22
62680;BME280;68213;40.528;44.712;2023-04-06T00:44:15;79811.00;;;3.85;76.35
62680;BME280;68213;40.528;44.712;2023-04-06T00:45:15;79810.06;;;3.80;76.11
62680;BME280;68213;40.528;44.712;2023-04-06T00:46:17;79801.47;;;3.78;76.25
62680;BME280;68213;40.528;44.712;2023-04-06T00:47:18;79820.09;;;3.74;76.23
62680;BME280;68213;40.528;44.712;2023-04-06T00:48:21;79817.50;;;3.74;75.93
62680;BME280;68213;40.528;44.712;2023-04-06T00:49:21;79810.38;;;3.75;75.83
62680;BME280;68213;40.528;44.712;2023-04-06T00:50:22;79816.56;;;3.70;76.14
62680;BME280;68213;40.528;44.712;2023-04-06T00:51:23;79799.59;;;3.69;76.33
62680;BME280;68213;40.528;44.712;2023-04-06T00:52:26;79809.56;;;3.72;76.06
62680;BME280;68213;40.528;44.712;2023-04-06T00:53:27;79790.09;;;3.52;75.82
62680;BME280;68213;40.528;44.712;2023-04-06T00:54:28;79809.44;;;3.70;75.79
62680;BME280;68213;40.528;44.712;2023-04-06T00:55:32;79812.72;;;3.71;75.97
62680;BME280;68213;40.528;44.712;2023-04-06T00:56:33;79805.72;;;3.73;75.84
62680;BME280;68213;40.528;44.712;2023-04-06T00:57:34;79805.72;;;3.73;75.46
62680;BME280;68213;40.528;44.712;2023-04-06T00:58:35;79808.19;;;3.71;75.73
62680;BME280;68213;40.528;44.712;2023-04-06T00:59:39;79809.56;;;3.72;75.20
62680;BME280;68213;40.528;44.712;2023-04-06T01:00:40;79814.75;;;3.72;74.76
62680;BME280;68213;40.528;44.712;2023-04-06T01:01:41;79810.38;;;3.75;75.54
62680;BME280;68213;40.528;44.712;2023-04-06T01:02:42;79815.81;;;3.79;75.61
62680;BME280;68213;40.528;44.712;2023-04-06T01:03:45;79819.09;;;3.79;75.40
62680;BME280;68213;40.528;44.712;2023-04-06T01:05:53;79819.97;;;3.72;75.68
62680;BME280;68213;40.528;44.712;2023-04-06T01:06:58;79829.00;;;3.71;75.54
62680;BME280;68213;40.528;44.712;2023-04-06T01:07:59;79820.94;;;3.67;75.71
62680;BME280;68213;40.528;44.712;2023-04-06T01:08:59;79809.78;;;3.55;75.71
62680;BME280;68213;40.528;44.712;2023-04-06T01:10:03;79826.16;;;3.67;75.72
62680;BME280;68213;40.528;44.712;2023-04-06T01:11:05;79832.56;;;3.66;75.19
62680;BME280;68213;40.528;44.712;2023-04-06T01:12:05;79828.75;;;3.67;74.90
62680;BME280;68213;40.528;44.712;2023-04-06T01:13:06;79819.56;;;3.66;74.98
62680;BME280;68213;40.528;44.712;2023-04-06T01:14:08;79818.88;;;3.65;74.75
62680;BME280;68213;40.528;44.712;2023-04-06T01:15:10;79823.13;;;3.71;74.12
62680;BME280;68213;40.528;44.712;2023-04-06T01:16:11;79819.97;;;3.72;74.08
62680;BME280;68213;40.528;44.712;2023-04-06T01:17:12;79826.53;;;3.73;73.95
62680;BME280;68213;40.528;44.712;2023-04-06T01:18:13;79827.09;;;3.72;74.56
62680;BME280;68213;40.528;44.712;2023-04-06T01:19:13;79832.16;;;3.70;73.91
62680;BME280;68213;40.528;44.712;2023-04-06T01:20:14;79812.63;;;3.59;73.89
62680;BME280;68213;40.528;44.712;2023-04-06T01:21:15;79834.75;;;3.70;73.50
62680;BME280;68213;40.528;44.712;2023-04-06T01:22:18;79835.56;;;3.72;73.58
62680;BME280;68213;40.528;44.712;2023-04-06T01:23:19;79843.22;;;3.70;73.72
62680;BME280;68213;40.528;44.712;2023-04-06T01:24:20;79845.38;;;3.74;73.89
62680;BME280;68213;40.528;44.712;2023-04-06T01:25:21;79839.38;;;3.71;74.17
62680;BME280;68213;40.528;44.712;2023-04-06T01:26:26;79837.50;;;3.62;74.86
62680;BME280;68213;40.528;44.712;2023-04-06T01:27:27;79838.06;;;3.60;74.95
62680;BME280;68213;40.528;44.712;2023-04-06T01:28:30;79837.94;;;3.58;74.83
62680;BME280;68213;40.528;44.712;2023-04-06T01:29:30;79825.69;;;3.49;73.74
62680;BME280;68213;40.528;44.712;2023-04-06T01:30:31;79838.75;;;3.61;73.50
62680;BME280;68213;40.528;44.712;2023-04-06T01:31:32;79843.25;;;3.60;74.18
62680;BME280;68213;40.528;44.712;2023-04-06T01:32:33;79839.72;;;3.56;74.55
62680;BME280;68213;40.528;44.712;2023-04-06T01:33:34;79841.66;;;3.55;74.82
62680;BME280;68213;40.528;44.712;2023-04-06T01:34:34;79835.22;;;3.56;74.51
62680;BME280;68213;40.528;44.712;2023-04-06T01:35:35;79838.78;;;3.51;74.63
62680;BME280;68213;40.528;44.712;2023-04-06T01:36:36;79836.34;;;3.43;74.97
62680;BME280;68213;40.528;44.712;2023-04-06T01:37:37;79839.66;;;3.34;76.16
62680;BME280;68213;40.528;44.712;2023-04-06T01:38:42;79834.84;;;3.40;75.45
62680;BME280;68213;40.528;44.712;2023-04-06T01:39:46;79838.69;;;3.39;75.58
62680;BME280;68213;40.528;44.712;2023-04-06T01:40:46;79838.81;;;3.41;75.38
62680;BME280;68213;40.528;44.712;2023-04-06T01:41:47;79840.19;;;3.42;75.40
62680;BME280;68213;40.528;44.712;2023-04-06T01:42:48;79836.78;;;3.40;75.31
62680;BME280;68213;40.528;44.712;2023-04-06T01:43:48;79835.31;;;3.27;75.62
62680;BME280;68213;40.528;44.712;2023-04-06T01:44:50;79839.19;;;3.16;75.94
62680;BME280;68213;40.528;44.712;2023-04-06T01:45:51;79836.25;;;2.90;76.62
62680;BME280;68213;40.528;44.712;2023-04-06T01:46:54;79839.66;;;2.83;77.41
62680;BME280;68213;40.528;44.712;2023-04-06T01:47:55;79840.75;;;2.80;77.61
62680;BME280;68213;40.528;44.712;2023-04-06T01:48:56;79844.44;;;2.87;77.47
62680;BME280;68213;40.528;44.712;2023-04-06T01:49:57;79842.09;;;2.91;77.09
62680;BME280;68213;40.528;44.712;2023-04-06T01:50:57;79846.22;;;2.94;76.78
62680;BME280;68213;40.528;44.712;2023-04-06T01:51:58;79836.50;;;2.94;76.39
62680;BME280;68213;40.528;44.712;2023-04-06T01:52:59;79837.44;;;2.99;76.60
62680;BME280;68213;40.528;44.712;2023-04-06T01:53:59;79838.13;;;2.99;76.07
62680;BME280;68213;40.528;44.712;2023-04-06T01:55:00;79839.75;;;2.95;75.88
62680;BME280;68213;40.528;44.712;2023-04-06T01:56:01;79837.31;;;2.97;75.63
62680;BME280;68213;40.528;44.712;2023-04-06T01:57:01;79832.91;;;2.99;75.46
62680;BME280;68213;40.528;44.712;2023-04-06T01:58:02;79838.81;;;3.00;74.91
62680;BME280;68213;40.528;44.712;2023-04-06T01:59:03;79836.75;;;2.98;74.57
62680;BME280;68213;40.528;44.712;2023-04-06T02:00:04;79834.72;;;2.97;74.49
62680;BME280;68213;40.528;44.712;2023-04-06T02:01:05;79836.09;;;2.88;74.57
62680;BME280;68213;40.528;44.712;2023-04-06T02:02:06;79832.56;;;2.83;74.72
62680;BME280;68213;40.528;44.712;2023-04-06T02:03:06;79830.34;;;2.90;74.85
62680;BME280;68213;40.528;44.712;2023-04-06T02:04:07;79830.50;;;2.92;74.31
62680;BME280;68213;40.528;44.712;2023-04-06T02:05:08;79819.19;;;2.77;74.46
62680;BME280;68213;40.528;44.712;2023-04-06T02:06:09;79835.53;;;2.90;74.08
62680;BME280;68213;40.528;44.712;2023-04-06T02:07:10;79831.06;;;2.90;74.05
62680;BME280;68213;40.528;44.712;2023-04-06T02:08:13;79839.50;;;2.91;74.24
62680;BME280;68213;40.528;44.712;2023-04-06T02:09:14;79837.59;;;2.91;74.25
62680;BME280;68213;40.528;44.712;2023-04-06T02:10:15;79838.94;;;2.92;73.64
62680;BME280;68213;40.528;44.712;2023-04-06T02:11:16;79787.13;;;2.53;73.47
62680;BME280;68213;40.528;44.712;2023-04-06T02:12:17;79837.06;;;2.93;73.66
62680;BME280;68213;40.528;44.712;2023-04-06T02:13:18;79837.06;;;2.93;73.46
62680;BME280;68213;40.528;44.712;2023-04-06T02:14:18;79836.34;;;2.92;73.58
62680;BME280;68213;40.528;44.712;2023-04-06T02:15:19;79842.66;;;2.89;73.58
62680;BME280;68213;40.528;44.712;2023-04-06T02:16:20;79837.75;;;2.83;73.65
62680;BME280;68213;40.528;44.712;2023-04-06T02:17:21;79838.97;;;2.82;73.75
62680;BME280;68213;40.528;44.712;2023-04-06T02:18:21;79838.41;;;2.84;73.78
62680;BME280;68213;40.528;44.712;2023-04-06T02:19:22;79822.47;;;2.68;73.72
62680;BME280;68213;40.528;44.712;2023-04-06T02:20:23;79837.47;;;2.79;73.75
62680;BME280;68213;40.528;44.712;2023-04-06T02:21:24;79847.72;;;2.77;73.95
62680;BME280;68213;40.528;44.712;2023-04-06T02:22:24;79842.66;;;2.79;73.46
62680;BME280;68213;40.528;44.712;2023-04-06T02:23:25;79843.06;;;2.76;73.24
62680;BME280;68213;40.528;44.712;2023-04-06T02:24:26;79842.41;;;2.75;73.54
62680;BME280;68213;40.528;44.712;2023-04-06T02:25:28;79839.00;;;2.73;73.29
62680;BME280;68213;40.528;44.712;2023-04-06T02:26:29;79852.53;;;2.71;73.76
62680;BME280;68213;40.528;44.712;2023-04-06T02:27:30;79840.88;;;2.72;73.62
62680;BME280;68213;40.528;44.712;2023-04-06T02:28:30;79842.16;;;2.71;74.29
62680;BME280;68213;40.528;44.712;2023-04-06T02:29:31;79839.41;;;2.69;74.23
62680;BME280;68213;40.528;44.712;2023-04-06T02:30:32;79834.63;;;2.65;73.83
62680;BME280;68213;40.528;44.712;2023-04-06T02:31:33;79838.44;;;2.64;74.28
62680;BME280;68213;40.528;44.712;2023-04-06T02:32:33;79846.25;;;2.64;74.26
62680;BME280;68213;40.528;44.712;2023-04-06T02:33:34;79840.91;;;2.62;74.29
62680;BME280;68213;40.528;44.712;2023-04-06T02:34:35;79841.06;;;2.54;74.05
62680;BME280;68213;40.528;44.712;2023-04-06T02:35:35;79851.44;;;2.54;73.96
62680;BME280;68213;40.528;44.712;2023-04-06T02:36:36;79829.75;;;2.40;73.74
62680;BME280;68213;40.528;44.712;2023-04-06T02:37:37;79843.38;;;2.50;73.67
62680;BME280;68213;40.528;44.712;2023-04-06T02:38:38;79840.25;;;2.52;73.93
62680;BME280;68213;40.528;44.712;2023-04-06T02:39:39;79836.00;;;2.47;74.04
62680;BME280;68213;40.528;44.712;2023-04-06T02:40:40;79857.44;;;2.47;74.13
62680;BME280;68213;40.528;44.712;2023-04-06T02:41:41;79849.53;;;2.45;74.14
62680;BME280;68213;40.528;44.712;2023-04-06T02:42:41;79834.25;;;2.30;74.13
62680;BME280;68213;40.528;44.712;2023-04-06T02:43:42;79846.13;;;2.43;74.14
62680;BME280;68213;40.528;44.712;2023-04-06T02:44:43;79850.75;;;2.44;74.30
62680;BME280;68213;40.528;44.712;2023-04-06T02:45:43;79850.59;;;2.42;74.40
62680;BME280;68213;40.528;44.712;2023-04-06T02:46:44;79853.91;;;2.43;74.46
62680;BME280;68213;40.528;44.712;2023-04-06T02:47:45;79853.09;;;2.40;74.17
62680;BME280;68213;40.528;44.712;2023-04-06T02:48:46;79862.34;;;2.43;74.34
62680;BME280;68213;40.528;44.712;2023-04-06T02:49:46;79855.28;;;2.44;74.60
62680;BME280;68213;40.528;44.712;2023-04-06T02:50:47;79865.09;;;2.45;74.60
62680;BME280;68213;40.528;44.712;2023-04-06T02:51:48;79857.16;;;2.43;74.49
62680;BME280;68213;40.528;44.712;2023-04-06T02:52:48;79852.38;;;2.40;74.32
62680;BME280;68213;40.528;44.712;2023-04-06T02:53:49;79855.53;;;2.38;74.37
62680;BME280;68213;40.528;44.712;2023-04-06T02:54:50;79863.31;;;2.28;75.01
62680;BME280;68213;40.528;44.712;2023-04-06T02:55:51;79856.75;;;2.27;74.89
62680;BME280;68213;40.528;44.712;2023-04-06T02:56:52;79860.44;;;2.24;75.24
62680;BME280;68213;40.528;44.712;2023-04-06T02:57:52;79858.81;;;2.29;74.98
62680;BME280;68213;40.528;44.712;2023-04-06T02:58:53;79861.81;;;2.35;74.50
62680;BME280;68213;40.528;44.712;2023-04-06T02:59:54;79837.78;;;2.25;74.16
62680;BME280;68213;40.528;44.712;2023-04-06T03:00:55;79864.69;;;2.39;73.77
62680;BME280;68213;40.528;44.712;2023-04-06T03:01:55;79860.06;;;2.37;74.28
62680;BME280;68213;40.528;44.712;2023-04-06T03:02:56;79868.25;;;2.34;74.25
62680;BME280;68213;40.528;44.712;2023-04-06T03:03:57;79869.72;;;2.37;74.38
62680;BME280;68213;40.528;44.712;2023-04-06T03:04:58;79869.72;;;2.37;74.05
62680;BME280;68213;40.528;44.712;2023-04-06T03:05:59;79861.28;;;2.36;73.85
62680;BME280;68213;40.528;44.712;2023-04-06T03:07:00;79872.31;;;2.37;73.87
62680;BME280;68213;40.528;44.712;2023-04-06T03:08:01;79869.72;;;2.37;74.15
62680;BME280;68213;40.528;44.712;2023-04-06T03:09:05;79870.44;;;2.37;74.13
62680;BME280;68213;40.528;44.712;2023-04-06T03:10:06;79867.84;;;2.37;74.17
62680;BME280;68213;40.528;44.712;2023-04-06T03:11:07;79865.91;;;2.38;73.90
62680;BME280;68213;40.528;44.712;2023-04-06T03:12:07;79865.75;;;2.36;74.20
62680;BME280;68213;40.528;44.712;2023-04-06T03:13:10;79866.47;;;2.36;74.24
62680;BME280;68213;40.528;44.712;2023-04-06T03:14:10;79862.34;;;2.33;74.02
62680;BME280;68213;40.528;44.712;2023-04-06T03:15:12;79867.41;;;2.31;74.02
62680;BME280;68213;40.528;44.712;2023-04-06T03:16:13;79863.59;;;2.22;74.42
62680;BME280;68213;40.528;44.712;2023-04-06T03:17:13;79862.09;;;2.29;74.01
62680;BME280;68213;40.528;44.712;2023-04-06T03:18:15;79866.19;;;2.32;74.13
62680;BME280;68213;40.528;44.712;2023-04-06T03:19:15;79867.13;;;2.37;73.48
62680;BME280;68213;40.528;44.712;2023-04-06T03:20:16;79861.94;;;2.27;73.47
62680;BME280;68213;40.528;44.712;2023-04-06T03:21:16;79864.25;;;2.13;74.69
62680;BME280;68213;40.528;44.712;2023-04-06T03:22:17;79866.59;;;2.19;74.68
62680;BME280;68213;40.528;44.712;2023-04-06T03:23:18;79863.59;;;2.22;74.48
62680;BME280;68213;40.528;44.712;2023-04-06T03:24:21;79865.22;;;2.18;74.56
62680;BME280;68213;40.528;44.712;2023-04-06T03:25:21;79858.81;;;2.09;75.11
62680;BME280;68213;40.528;44.712;2023-04-06T03:26:22;79863.59;;;2.13;75.19
62680;BME280;68213;40.528;44.712;2023-04-06T03:27:23;79865.75;;;2.16;74.93
62680;BME280;68213;40.528;44.712;2023-04-06T03:28:23;79864.53;;;2.17;75.45
62680;BME280;68213;40.528;44.712;2023-04-06T03:29:24;79864.28;;;2.23;74.97
62680;BME280;68213;40.528;44.712;2023-04-06T03:30:25;79863.31;;;2.28;75.01
62680;BME280;68213;40.528;44.712;2023-04-06T03:31:27;79850.34;;;2.18;75.21
62680;BME280;68213;40.528;44.712;2023-04-06T03:32:27;79867.69;;;2.35;74.67
62680;BME280;68213;40.528;44.712;2023-04-06T03:33:28;79872.63;;;2.41;74.81
62680;BME280;68213;40.528;44.712;2023-04-06T03:34:30;79863.72;;;2.44;74.26
62680;BME280;68213;40.528;44.712;2023-04-06T03:35:31;79864.00;;;2.48;74.62
62680;BME280;68213;40.528;44.712;2023-04-06T03:36:32;79862.78;;;2.49;74.61
62680;BME280;68213;40.528;44.712;2023-04-06T03:37:32;79868.38;;;2.56;74.40
62680;BME280;68213;40.528;44.712;2023-04-06T03:38:33;79867.56;;;2.53;74.99
62680;BME280;68213;40.528;44.712;2023-04-06T03:39:34;79862.38;;;2.53;75.41
62680;BME280;68213;40.528;44.712;2023-04-06T03:40:34;79864.16;;;2.60;74.95
62680;BME280;68213;40.528;44.712;2023-04-06T03:41:35;79858.66;;;2.66;74.46
62680;BME280;68213;40.528;44.712;2023-04-06T03:42:36;79845.13;;;2.58;74.17
62680;BME280;68213;40.528;44.712;2023-04-06T03:43:36;79861.66;;;2.82;74.15
62680;BME280;68213;40.528;44.712;2023-04-06T03:44:37;79863.97;;;2.88;74.23
62680;BME280;68213;40.528;44.712;2023-04-06T03:45:38;79862.47;;;2.94;74.17
62680;BME280;68213;40.528;44.712;2023-04-06T03:46:38;79855.63;;;2.99;74.21
62680;BME280;68213;40.528;44.712;2023-04-06T03:47:39;79860.53;;;2.95;74.39
62680;BME280;68213;40.528;44.712;2023-04-06T03:48:42;79862.84;;;3.00;74.95
62680;BME280;68213;40.528;44.712;2023-04-06T03:49:43;79860.94;;;3.01;75.16
62680;BME280;68213;40.528;44.712;2023-04-06T03:50:44;79860.66;;;3.07;75.12
62680;BME280;68213;40.528;44.712;2023-04-06T03:51:47;79861.47;;;3.09;75.39
62680;BME280;68213;40.528;44.712;2023-04-06T03:52:47;79866.41;;;3.05;76.13
62680;BME280;68213;40.528;44.712;2023-04-06T03:53:48;79857.63;;;3.10;76.46
62680;BME280;68213;40.528;44.712;2023-04-06T03:54:49;79857.63;;;3.10;76.65
62680;BME280;68213;40.528;44.712;2023-04-06T03:55:50;79854.34;;;3.20;76.56
62680;BME280;68213;40.528;44.712;2023-04-06T03:56:51;79856.66;;;3.25;76.22
62680;BME280;68213;40.528;44.712;2023-04-06T03:57:51;79839.72;;;3.14;76.15
62680;BME280;68213;40.528;44.712;2023-04-06T03:58:52;79859.47;;;3.39;76.05
62680;BME280;68213;40.528;44.712;2023-04-06T03:59:53;79860.81;;;3.50;75.79
62680;BME280;68213;40.528;44.712;2023-04-06T04:00:53;79863.25;;;3.58;75.86
62680;BME280;68213;40.528;44.712;2023-04-06T04:01:57;79868.41;;;3.68;75.78
62680;BME280;68213;40.528;44.712;2023-04-06T04:02:58;79853.38;;;3.66;75.32
62680;BME280;68213;40.528;44.712;2023-04-06T04:03:59;79868.63;;;3.81;74.71
62680;BME280;68213;40.528;44.712;2023-04-06T04:05:00;79865.59;;;3.85;74.22
62680;BME280;68213;40.528;44.712;2023-04-06T04:06:01;79863.69;;;3.86;74.58
62680;BME280;68213;40.528;44.712;2023-04-06T04:07:01;79858.75;;;3.90;74.62
62680;BME280;68213;40.528;44.712;2023-04-06T04:08:02;79863.94;;;3.90;74.50
62680;BME280;68213;40.528;44.712;2023-04-06T04:09:03;79857.88;;;3.97;74.53
62680;BME280;68213;40.528;44.712;2023-04-06T04:10:04;79859.19;;;4.08;74.24
62680;BME280;68213;40.528;44.712;2023-04-06T04:11:05;79855.72;;;4.15;73.82
62680;BME280;68213;40.528;44.712;2023-04-06T04:12:05;79864.59;;;4.22;73.67
62680;BME280;68213;40.528;44.712;2023-04-06T04:13:06;79860.38;;;4.17;74.25
62680;BME280;68213;40.528;44.712;2023-04-06T04:14:07;79864.59;;;4.22;73.75
62680;BME280;68213;40.528;44.712;2023-04-06T04:15:08;79864.41;;;4.29;73.29
62680;BME280;68213;40.528;44.712;2023-04-06T04:16:09;79857.28;;;4.30;73.33
62680;BME280;68213;40.528;44.712;2023-04-06T04:17:09;79863.19;;;4.31;72.89
62680;BME280;68213;40.528;44.712;2023-04-06T04:18:10;79852.88;;;4.33;73.03
62680;BME280;68213;40.528;44.712;2023-04-06T04:19:13;79855.88;;;4.39;72.76
62680;BME280;68213;40.528;44.712;2023-04-06T04:20:14;79861.06;;;4.39;73.06
62680;BME280;68213;40.528;44.712;2023-04-06T04:21:15;79855.88;;;4.39;72.55
62680;BME280;68213;40.528;44.712;2023-04-06T04:22:16;79855.00;;;4.46;71.40
62680;BME280;68213;40.528;44.712;2023-04-06T04:23:16;79844.53;;;4.34;71.75
62680;BME280;68213;40.528;44.712;2023-04-06T04:24:17;79855.69;;;4.47;71.64
62680;BME280;68213;40.528;44.712;2023-04-06T04:25:17;79858.94;;;4.47;72.18
62680;BME280;68213;40.528;44.712;2023-04-06T04:26:18;79854.13;;;4.53;72.55
62680;BME280;68213;40.528;44.712;2023-04-06T04:27:19;79860.00;;;4.54;71.57
62680;BME280;68213;40.528;44.712;2023-04-06T04:28:20;79839.81;;;4.42;72.01
62680;BME280;68213;40.528;44.712;2023-04-06T04:29:21;79847.78;;;4.56;72.25
62680;BME280;68213;40.528;44.712;2023-04-06T04:30:22;79854.81;;;4.54;71.51
62680;BME280;68213;40.528;44.712;2023-04-06T04:31:23;79854.38;;;4.57;71.62
62680;BME280;68213;40.528;44.712;2023-04-06T04:32:24;79849.38;;;4.50;72.09
62680;BME280;68213;40.528;44.712;2023-04-06T04:33:27;79853.00;;;4.56;72.69
62680;BME280;68213;40.528;44.712;2023-04-06T04:34:28;79859.84;;;4.62;71.62
62680;BME280;68213;40.528;44.712;2023-04-06T04:35:31;79845.00;;;4.64;70.78
62680;BME280;68213;40.528;44.712;2023-04-06T04:36:31;79850.59;;;4.70;70.77
62680;BME280;68213;40.528;44.712;2023-04-06T04:37:32;79852.44;;;4.80;70.76
62680;BME280;68213;40.528;44.712;2023-04-06T04:38:35;79853.09;;;4.80;70.52
62680;BME280;68213;40.528;44.712;2023-04-06T04:39:35;79843.38;;;4.81;69.54
62680;BME280;68213;40.528;44.712;2023-04-06T04:40:36;79852.81;;;4.86;69.69
62680;BME280;68213;40.528;44.712;2023-04-06T04:41:37;79855.19;;;4.93;69.34
62680;BME280;68213;40.528;44.712;2023-04-06T04:42:37;79845.56;;;4.96;68.90
62680;BME280;68213;40.528;44.712;2023-04-06T04:43:38;79854.88;;;4.99;69.36
62680;BME280;68213;40.528;44.712;2023-04-06T04:44:39;79844.78;;;4.93;69.44
62680;BME280;68213;40.528;44.712;2023-04-06T04:45:39;79858.53;;;5.06;68.31
62680;BME280;68213;40.528;44.712;2023-04-06T04:46:41;79850.38;;;5.12;68.02
62680;BME280;68213;40.528;44.712;2023-04-06T04:47:42;79851.88;;;5.15;67.97
62680;BME280;68213;40.528;44.712;2023-04-06T04:48:43;79849.84;;;5.13;68.12
62680;BME280;68213;40.528;44.712;2023-04-06T04:49:43;79848.25;;;5.20;68.08
62680;BME280;68213;40.528;44.712;2023-04-06T04:50:44;79833.81;;;5.07;68.24
62680;BME280;68213;40.528;44.712;2023-04-06T04:51:45;79850.28;;;5.21;70.79
62680;BME280;68213;40.528;44.712;2023-04-06T04:52:45;79850.97;;;5.22;68.50
62680;BME280;68213;40.528;44.712;2023-04-06T04:53:46;79852.69;;;5.29;67.94
62680;BME280;68213;40.528;44.712;2023-04-06T04:54:47;79847.38;;;5.39;67.70
62680;BME280;68213;40.528;44.712;2023-04-06T04:55:48;79851.00;;;5.34;68.13
62680;BME280;68213;40.528;44.712;2023-04-06T04:56:48;79850.78;;;5.42;68.09
62680;BME280;68213;40.528;44.712;2023-04-06T04:57:50;79854.88;;;5.45;68.54
62680;BME280;68213;40.528;44.712;2023-04-06T04:58:51;79851.50;;;5.54;68.06
62680;BME280;68213;40.528;44.712;2023-04-06T04:59:52;79850.38;;;5.57;67.52
62680;BME280;68213;40.528;44.712;2023-04-06T05:00:52;79849.00;;;5.56;68.36
62680;BME280;68213;40.528;44.712;2023-04-06T05:01:53;79853.06;;;5.47;67.78
62680;BME280;68213;40.528;44.712;2023-04-06T05:02:54;79854.47;;;5.60;69.65
62680;BME280;68213;40.528;44.712;2023-04-06T05:03:54;79845.50;;;5.63;69.69
62680;BME280;68213;40.528;44.712;2023-04-06T05:04:55;79846.31;;;5.78;68.64
62680;BME280;68213;40.528;44.712;2023-04-06T05:05:56;79847.44;;;5.75;67.49
62680;BME280;68213;40.528;44.712;2023-04-06T05:07:07;79853.13;;;5.83;68.08
62680;BME280;68213;40.528;44.712;2023-04-06T05:08:08;79851.06;;;5.81;68.19
62680;BME280;68213;40.528;44.712;2023-04-06T05:09:08;79845.50;;;5.63;68.12
62680;BME280;68213;40.528;44.712;2023-04-06T05:10:09;79851.06;;;5.69;68.36
62680;BME280;68213;40.528;44.712;2023-04-06T05:11:10;79838.47;;;5.78;69.64
62680;BME280;68213;40.528;44.712;2023-04-06T05:12:11;79847.78;;;5.93;67.72
62680;BME280;68213;40.528;44.712;2023-04-06T05:13:14;79843.25;;;5.93;67.29
62680;BME280;68213;40.528;44.712;2023-04-06T05:14:15;79849.06;;;6.03;67.46
62680;BME280;68213;40.528;44.712;2023-04-06T05:15:16;79854.28;;;6.15;66.41
62680;BME280;68213;40.528;44.712;2023-04-06T05:16:16;79855.88;;;6.32;65.99
62680;BME280;68213;40.528;44.712;2023-04-06T05:17:17;79854.50;;;6.43;65.82
62680;BME280;68213;40.528;44.712;2023-04-06T05:18:18;79852.00;;;6.45;65.25
62680;BME280;68213;40.528;44.712;2023-04-06T05:19:19;79844.16;;;6.57;64.56
62680;BME280;68213;40.528;44.712;2023-04-06T05:20:20;79844.25;;;6.59;64.93
62680;BME280;68213;40.528;44.712;2023-04-06T05:21:20;79846.28;;;6.61;65.97
62680;BME280;68213;40.528;44.712;2023-04-06T05:22:21;79837.75;;;6.60;65.07
62680;BME280;68213;40.528;44.712;2023-04-06T05:23:22;79840.50;;;6.62;65.73
62680;BME280;68213;40.528;44.712;2023-04-06T05:24:24;79831.06;;;6.69;65.66